Terminal Aerodrome Forecast
Issued by NWS

Home | Current Version | Previous Version | Text Only | Print | Product List | Glossary On
Versions: 1 2 3 4 5 6 7 8 9 10 11 12 13 14 15 16 17 18
000
FTUS41 KBTV 201128
TAFSLK
TAF
KSLK 201128Z 2012/2112 VRB03KT 3/4SM -RA BR OVC005
     FM201500 23005KT 2SM -RA BR OVC008 WS020/25045KT
     FM202300 23007KT P6SM VCSH OVC008 WS020/25045KT
     FM210300 23008KT P6SM SCT008 OVC015 WS020/25045KT
     FM210400 23009KT P6SM OVC025 WS020/25045KT=

USA.gov is the U.S. government's official web portal to all federal, state and local government web resources and services.